Time;durP1;ratioP1;P1;durP2;ratioP2;P2;SDS_P1;SDS_P2;PMS_P1;PMS_P2;Temp;Humidity;BMP_temperature;BMP_pressure;BME280_temperature;BME280_humidity;BME280_pressure;Samples;Min_cycle;Max_cycle;Signal;HPM_P1;HPM_P2
2022/11/16 00:04:19;;;;;;;8.57;7.68;;;;;;;11.76;100.00;99714.38;10539277;28;20036;-71
2022/11/16 00:09:24;;;;;;;7.43;6.60;;;;;;;11.75;100.00;99712.72;10541794;28;20073;-70
2022/11/16 00:14:29;;;;;;;9.32;8.25;;;;;;;11.77;100.00;99714.16;10540581;28;20428;-70
2022/11/16 00:19:29;;;;;;;8.70;7.75;;;;;;;11.77;100.00;99713.31;10541214;28;20028;-70
2022/11/16 00:24:30;;;;;;;10.35;6.82;;;;;;;11.75;100.00;99721.69;10556400;28;20371;-70
2022/11/16 00:29:30;;;;;;;10.77;7.20;;;;;;;11.78;100.00;99726.66;10541916;28;20040;-70
2022/11/16 00:34:30;;;;;;;8.75;7.85;;;;;;;11.84;100.00;99719.47;10542230;28;20459;-71
2022/11/16 00:39:31;;;;;;;11.07;8.60;;;;;;;11.82;100.00;99725.13;10541827;28;20059;-70
2022/11/16 00:44:31;;;;;;;9.68;8.20;;;;;;;11.84;100.00;99727.59;10540418;28;20111;-72
2022/11/16 00:49:32;;;;;;;8.52;7.72;;;;;;;11.88;100.00;99739.66;10539610;28;20032;-73
2022/11/16 00:54:32;;;;;;;9.85;8.85;;;;;;;11.83;100.00;99748.44;10540463;28;20055;-71
2022/11/16 00:59:32;;;;;;;8.05;7.25;;;;;;;11.71;100.00;99750.34;10541211;28;20032;-71
2022/11/16 01:04:33;;;;;;;6.90;6.03;;;;;;;11.63;100.00;99739.81;10542872;28;20386;-73
2022/11/16 01:09:33;;;;;;;7.10;6.38;;;;;;;11.58;100.00;99742.41;10548975;28;20141;-70
2022/11/16 01:14:38;;;;;;;6.20;5.70;;;;;;;11.57;100.00;99730.72;10563965;28;20038;-70
2022/11/16 01:19:38;;;;;;;7.95;7.15;;;;;;;11.57;100.00;99724.50;10547041;28;20028;-70
2022/11/16 01:24:39;;;;;;;9.50;8.50;;;;;;;11.51;100.00;99720.81;10547897;28;20115;-70
2022/11/16 01:29:39;;;;;;;14.02;7.75;;;;;;;11.53;100.00;99734.16;10545736;28;20082;-70
2022/11/16 01:34:39;;;;;;;9.05;7.38;;;;;;;11.43;100.00;99718.44;10547733;28;20028;-71
2022/11/16 01:39:40;;;;;;;7.47;6.57;;;;;;;11.41;100.00;99718.66;10529092;28;20134;-70
2022/11/16 01:44:40;;;;;;;7.28;6.57;;;;;;;11.39;100.00;99711.81;10547956;28;20105;-70
2022/11/16 01:49:43;;;;;;;8.88;6.95;;;;;;;11.36;100.00;99723.97;10546594;28;20028;-70
2022/11/16 01:54:44;;;;;;;10.55;8.23;;;;;;;11.36;100.00;99723.16;10562698;28;20030;-70
2022/11/16 01:59:45;;;;;;;9.63;8.70;;;;;;;11.33;100.00;99720.91;10562785;28;20024;-70
2022/11/16 02:04:45;;;;;;;8.55;7.53;;;;;;;11.31;100.00;99731.97;10546686;28;20536;-70
2022/11/16 02:10:03;;;;;;;12.85;7.88;;;;;;;11.29;100.00;99733.25;10545761;28;20035;-70
2022/11/16 02:15:24;;;;;;;13.82;8.70;;;;;;;11.21;100.00;99734.41;10552087;28;20032;-70
2022/11/16 02:20:54;;;;;;;9.95;8.60;;;;;;;11.18;100.00;99726.75;10548383;28;20043;-70
2022/11/16 02:26:23;;;;;;;10.35;8.30;;;;;;;11.11;100.00;99724.13;10530655;28;20127;-70
2022/11/16 02:31:27;;;;;;;12.45;9.30;;;;;;;11.08;100.00;99726.47;10541870;28;20035;-70
2022/11/16 02:36:27;;;;;;;16.02;8.23;;;;;;;11.02;100.00;99717.38;10561611;28;20111;-70
2022/11/16 02:41:30;;;;;;;12.63;9.05;;;;;;;10.94;100.00;99732.06;10546511;28;20052;-70
2022/11/16 02:46:35;;;;;;;16.98;6.40;;;;;;;10.85;100.00;99724.50;10561454;28;20063;-70
2022/11/16 02:51:36;;;;;;;9.35;5.25;;;;;;;10.74;100.00;99727.94;10564932;28;20035;-72
2022/11/16 02:56:43;;;;;;;12.35;5.05;;;;;;;10.65;100.00;99730.13;10547804;28;20459;-70
2022/11/16 03:01:49;;;;;;;9.85;4.85;;;;;;;10.59;100.00;99720.22;10543893;28;20412;-70
2022/11/16 03:06:49;;;;;;;10.80;4.17;;;;;;;10.58;100.00;99724.78;10560788;28;20370;-70
2022/11/16 03:12:01;;;;;;;17.80;4.25;;;;;;;10.58;100.00;99726.69;10559195;28;20052;-70
2022/11/16 03:17:03;;;;;;;10.40;3.92;;;;;;;10.57;100.00;99733.16;10559181;28;20435;-70
2022/11/16 03:22:11;;;;;;;22.05;4.18;;;;;;;10.55;100.00;99727.97;10563087;28;20477;-70
2022/11/16 03:27:38;;;;;;;11.95;4.65;;;;;;;10.52;100.00;99727.59;10544436;28;20077;-70
2022/11/16 03:32:53;;;;;;;8.25;4.30;;;;;;;10.51;100.00;99720.53;10524824;28;20114;-70
2022/11/16 03:37:54;;;;;;;7.45;4.15;;;;;;;10.50;100.00;99732.38;10544314;28;20031;-70
2022/11/16 03:42:57;;;;;;;8.52;4.35;;;;;;;10.52;100.00;99733.00;10540943;28;20051;-70
2022/11/16 03:47:57;;;;;;;7.63;4.90;;;;;;;10.44;100.00;99732.25;10558376;28;20027;-70
2022/11/16 03:52:57;;;;;;;8.20;5.00;;;;;;;10.44;100.00;99734.13;10541572;28;20029;-70
2022/11/16 03:57:58;;;;;;;9.60;5.40;;;;;;;10.38;100.00;99730.44;10540809;28;20032;-70
2022/11/16 04:02:58;;;;;;;19.35;6.32;;;;;;;10.39;100.00;99729.38;10542012;28;20024;-70
2022/11/16 04:24:11;;;;;;;6.15;4.97;;;;;;;10.10;100.00;99738.19;10554061;28;20463;-70
2022/11/16 04:29:12;;;;;;;15.55;5.75;;;;;;;9.98;100.00;99755.13;10525110;28;20024;-70
2022/11/16 04:39:31;;;;;;;12.35;4.95;;;;;;;9.98;100.00;99755.13;10554038;28;20056;-70
2022/11/16 04:49:54;;;;;;;16.27;5.72;;;;;;;9.86;100.00;99765.03;10540477;28;20382;-70
2022/11/16 04:54:54;;;;;;;13.00;5.97;;;;;;;9.80;100.00;99771.34;10540317;28;20032;-70
2022/11/16 04:59:55;;;;;;;8.55;5.45;;;;;;;9.78;100.00;99762.59;10539632;28;20122;-69
2022/11/16 05:04:55;;;;;;;11.45;4.43;;;;;;;9.71;100.00;99761.84;10541621;28;20086;-70
2022/11/16 05:09:55;;;;;;;9.48;5.80;;;;;;;9.60;100.00;99763.34;10557692;28;20028;-70
2022/11/16 05:14:56;;;;;;;8.55;4.82;;;;;;;9.57;100.00;99746.75;10540005;28;20036;-70
2022/11/16 05:25:15;;;;;;;25.90;4.75;;;;;;;9.36;100.00;99759.56;10539273;28;20459;-70
2022/11/16 05:30:15;;;;;;;11.70;3.08;;;;;;;9.30;100.00;99768.56;10476109;28;20079;-71
2022/11/16 05:35:16;;;;;;;9.88;3.08;;;;;;;9.17;100.00;99765.94;10539714;28;20430;-71
2022/11/16 05:40:16;;;;;;;8.00;4.00;;;;;;;9.06;100.00;99778.22;10538227;28;20078;-71
2022/11/16 05:45:17;;;;;;;8.23;3.55;;;;;;;8.92;100.00;99763.97;10538170;28;20032;-71
2022/11/16 05:50:17;;;;;;;8.57;2.75;;;;;;;8.81;100.00;99764.66;10540124;28;20028;-70
2022/11/16 05:55:17;;;;;;;5.47;3.28;;;;;;;8.68;100.00;99775.47;10546249;28;20111;-70
2022/11/16 06:00:18;;;;;;;6.07;3.40;;;;;;;8.56;100.00;99784.22;10546645;28;20070;-70
2022/11/16 06:05:18;;;;;;;12.95;3.83;;;;;;;8.49;100.00;99779.91;10546613;28;20057;-70
2022/11/16 06:10:19;;;;;;;15.18;4.15;;;;;;;8.40;100.00;99790.09;10545530;28;20039;-73
2022/11/16 06:15:19;;;;;;;5.90;2.75;;;;;;;8.30;100.00;99786.97;10546739;28;20028;-69
2022/11/16 06:20:19;;;;;;;7.05;3.70;;;;;;;8.20;100.00;99792.78;10545769;28;20470;-70
2022/11/16 06:25:20;;;;;;;10.95;3.50;;;;;;;8.09;100.00;99793.41;10545002;28;20055;-70
2022/11/16 06:30:20;;;;;;;5.05;3.88;;;;;;;8.13;100.00;99789.25;10545618;28;20035;-70
2022/11/16 06:35:21;;;;;;;6.85;4.03;;;;;;;8.00;100.00;99795.47;10544954;28;20573;-69
2022/11/16 06:40:21;;;;;;;13.02;4.68;;;;;;;8.01;100.00;99804.38;10544521;28;20071;-69
2022/11/16 06:45:22;;;;;;;8.27;3.30;;;;;;;8.01;100.00;99804.38;10561195;28;20051;-69
2022/11/16 06:50:22;;;;;;;12.70;5.55;;;;;;;7.99;100.00;99815.41;10544479;28;20036;-69
2022/11/16 06:55:23;;;;;;;9.48;4.03;;;;;;;7.96;100.00;99809.59;10544234;28;20426;-69
2022/11/16 07:00:23;;;;;;;9.43;4.22;;;;;;;7.96;100.00;99815.81;10543987;28;20039;-69
2022/11/16 07:05:23;;;;;;;9.02;4.13;;;;;;;7.99;100.00;99820.78;10541612;28;20036;-69
2022/11/16 07:10:24;;;;;;;10.73;3.22;;;;;;;8.02;100.00;99817.69;10543638;28;20047;-69
2022/11/16 07:15:24;;;;;;;14.38;4.47;;;;;;;8.09;100.00;99821.19;10559789;28;20107;-70
2022/11/16 07:20:25;;;;;;;6.65;3.20;;;;;;;8.14;100.00;99821.41;10544645;28;20037;-70
2022/11/16 07:25:26;;;;;;;12.63;3.88;;;;;;;8.31;100.00;99829.06;10558813;28;20028;-69
2022/11/16 07:30:26;;;;;;;9.25;4.60;;;;;;;8.38;100.00;99825.34;10544619;28;20036;-70
2022/11/16 07:35:27;;;;;;;4.90;2.47;;;;;;;8.49;100.00;99834.69;10558490;28;20463;-69
2022/11/16 07:40:27;;;;;;;9.77;5.07;;;;;;;8.67;100.00;99838.59;10542319;28;20063;-69
2022/11/16 07:45:28;;;;;;;10.93;3.90;;;;;;;8.92;100.00;99841.44;10542259;28;20085;-69
2022/11/16 07:50:28;;;;;;;16.73;3.78;;;;;;;9.34;100.00;99844.59;10540087;28;20568;-69
2022/11/16 07:55:31;;;;;;;17.23;3.90;;;;;;;9.75;100.00;99847.69;10540663;28;20039;-69
2022/11/16 08:00:31;;;;;;;16.45;4.07;;;;;;;10.06;100.00;99851.44;10542024;28;20111;-70
2022/11/16 08:05:31;;;;;;;11.75;3.22;;;;;;;10.27;100.00;99855.63;10541655;28;20036;-70
2022/11/16 08:10:32;;;;;;;7.47;3.08;;;;;;;10.54;100.00;99863.53;10541556;28;20491;-69
2022/11/16 08:15:32;;;;;;;6.90;3.70;;;;;;;10.66;100.00;99859.06;10557330;28;20177;-70
2022/11/16 08:20:33;;;;;;;14.73;4.55;;;;;;;10.08;100.00;99868.25;10541696;28;20044;-70
2022/11/16 08:25:34;;;;;;;4.88;3.08;;;;;;;9.92;100.00;99861.53;10542150;28;20106;-69
2022/11/16 08:30:34;;;;;;;4.82;3.72;;;;;;;10.24;100.00;99846.06;10539601;28;20077;-69
2022/11/16 08:35:34;;;;;;;11.85;3.58;;;;;;;10.54;100.00;99850.84;10523639;28;20459;-69
2022/11/16 08:40:36;;;;;;;16.75;3.55;;;;;;;10.69;100.00;99856.72;10539977;28;20078;-69
2022/11/16 08:45:36;;;;;;;11.20;3.92;;;;;;;10.98;100.00;99865.16;10540832;28;20471;-69
2022/11/16 08:50:37;;;;;;;5.40;2.42;;;;;;;11.02;100.00;99852.81;10540616;28;20032;-69
2022/11/16 08:55:37;;;;;;;9.18;3.42;;;;;;;11.21;100.00;99861.78;10540753;28;20467;-69
2022/11/16 09:00:37;;;;;;;5.40;2.90;;;;;;;10.23;100.00;99866.03;10541392;28;20384;-69
2022/11/16 09:05:38;;;;;;;14.95;3.40;;;;;;;10.02;100.00;99858.31;10539197;28;20044;-69
2022/11/16 09:10:38;;;;;;;14.07;3.25;;;;;;;10.39;100.00;99864.69;10540528;28;20040;-69
2022/11/16 09:15:39;;;;;;;8.48;3.17;;;;;;;10.79;100.00;99853.50;10539716;28;20137;-69
2022/11/16 09:20:44;;;;;;;10.55;3.17;;;;;;;10.92;100.00;99858.75;10540152;28;20039;-69
2022/11/16 09:25:47;;;;;;;5.25;3.38;;;;;;;11.61;100.00;99872.09;10541250;28;20036;-69
2022/11/16 09:30:48;;;;;;;10.50;3.47;;;;;;;11.12;100.00;99863.13;10547040;28;20088;-69
2022/11/16 09:35:49;;;;;;;10.15;3.38;;;;;;;10.98;100.00;99867.06;10549499;28;20119;-69
2022/11/16 09:40:49;;;;;;;4.05;3.65;;;;;;;11.15;100.00;99879.75;10547464;28;20052;-69
2022/11/16 09:46:08;;;;;;;13.05;3.60;;;;;;;11.34;100.00;99875.16;10546778;28;20513;-69
2022/11/16 09:51:11;;;;;;;7.15;3.20;;;;;;;12.55;100.00;99870.47;10547967;28;20036;-69
2022/11/16 09:56:16;;;;;;;4.60;3.15;;;;;;;12.20;100.00;99875.84;10545646;28;20031;-69
2022/11/16 10:01:28;;;;;;;10.07;3.03;;;;;;;11.30;100.00;99870.44;10544759;28;20024;-69
2022/11/16 10:06:48;;;;;;;7.35;2.95;;;;;;;11.35;100.00;99862.44;10562265;28;20028;-69
2022/11/16 10:11:55;;;;;;;6.82;3.30;;;;;;;11.58;100.00;99864.41;10547031;28;20028;-69
2022/11/16 10:17:01;;;;;;;12.60;4.13;;;;;;;12.44;100.00;99856.88;10545924;28;20130;-69
2022/11/16 10:22:06;;;;;;;15.90;3.85;;;;;;;13.17;100.00;99850.06;10546636;28;20085;-69
2022/11/16 10:27:31;;;;;;;10.38;3.30;;;;;;;12.99;100.00;99857.31;10545121;28;20081;-69
2022/11/16 10:32:33;;;;;;;6.32;3.38;;;;;;;12.99;100.00;99854.59;10560908;28;20028;-69
2022/11/16 10:37:35;;;;;;;2.90;2.60;;;;;;;13.01;100.00;99848.91;10543542;28;20387;-69
2022/11/16 10:42:38;;;;;;;7.57;3.30;;;;;;;12.62;100.00;99858.66;10559965;28;20052;-69
2022/11/16 10:47:41;;;;;;;16.75;4.63;;;;;;;13.26;100.00;99854.09;10545021;28;20444;-69
2022/11/16 10:52:41;;;;;;;10.25;3.03;;;;;;;13.72;100.00;99849.56;10543646;28;20190;-69
2022/11/16 10:58:02;;;;;;;11.25;4.70;;;;;;;12.45;100.00;99847.69;10545651;28;20088;-69
2022/11/16 11:03:02;;;;;;;8.27;3.42;;;;;;;11.66;100.00;99852.44;10559349;28;20115;-69
2022/11/16 11:08:04;;;;;;;8.15;3.65;;;;;;;11.53;100.00;99853.44;10559929;28;20114;-69
2022/11/16 11:13:16;;;;;;;5.47;3.63;;;;;;;11.32;100.00;99852.03;10544125;28;20028;-69
2022/11/16 11:18:22;;;;;;;11.02;4.40;;;;;;;11.21;100.00;99867.19;10560290;28;20376;-69
2022/11/16 11:23:23;;;;;;;13.27;4.80;;;;;;;11.05;100.00;99851.56;10542229;28;20124;-69
2022/11/16 11:28:24;;;;;;;12.90;4.03;;;;;;;11.10;100.00;99870.66;10541423;28;20032;-69
2022/11/16 11:33:27;;;;;;;6.95;4.55;;;;;;;10.88;100.00;99854.00;10541336;28;20057;-69
2022/11/16 11:38:28;;;;;;;8.38;3.90;;;;;;;10.84;100.00;99853.63;10557608;28;20127;-69
2022/11/16 11:43:28;;;;;;;8.70;4.28;;;;;;;10.88;100.00;99851.31;10540687;28;20136;-69
2022/11/16 11:48:32;;;;;;;9.30;4.47;;;;;;;11.31;100.00;99834.13;10541788;28;20072;-69
2022/11/16 11:53:32;;;;;;;8.30;3.95;;;;;;;11.16;100.00;99834.50;10541006;28;20151;-69
2022/11/16 11:58:35;;;;;;;7.53;4.10;;;;;;;10.95;100.00;99825.00;10541165;28;20036;-69
2022/11/16 12:03:57;;;;;;;11.13;4.88;;;;;;;10.93;100.00;99825.19;10557430;28;20317;-69
2022/11/16 12:09:34;;;;;;;13.27;4.03;;;;;;;10.91;100.00;99811.06;10557081;28;20035;-68
2022/11/16 12:14:48;;;;;;;;;;;;;;;11.01;100.00;99815.97;10541984;28;20371;-69
2022/11/16 12:20:06;;;;;;;12.70;5.60;;;;;;;11.22;100.00;99819.25;10557741;28;19927;-68
2022/11/16 12:25:10;;;;;;;10.32;4.80;;;;;;;12.10;100.00;99816.72;10540688;28;20065;-69
2022/11/16 12:30:13;;;;;;;12.50;4.38;;;;;;;12.04;100.00;99809.50;10540014;28;20088;-69
2022/11/16 12:35:32;;;;;;;8.43;3.88;;;;;;;11.83;100.00;99808.13;10555658;28;20020;-68
2022/11/16 12:41:01;;;;;;;10.43;4.57;;;;;;;11.48;100.00;99804.50;10540914;28;20176;-69
2022/11/16 12:46:35;;;;;;;5.47;3.22;;;;;;;11.26;100.00;99813.13;10540917;28;20042;-68
2022/11/16 12:51:50;;;;;;;11.40;4.78;;;;;;;11.40;100.00;99798.34;10538665;28;20039;-68
2022/11/16 12:57:13;;;;;;;11.32;4.07;;;;;;;11.50;100.00;99802.38;10539511;28;20032;-69
2022/11/16 13:02:25;;;;;;;5.75;3.30;;;;;;;11.36;100.00;99793.63;10544811;28;20035;-68
2022/11/16 13:07:31;;;;;;;13.27;4.07;;;;;;;11.17;100.00;99795.53;10549699;28;20028;-68
2022/11/16 13:12:32;;;;;;;6.70;2.17;;;;;;;11.07;100.00;99796.09;10548471;28;20035;-68
2022/11/16 13:17:34;;;;;;;11.35;3.50;;;;;;;11.05;100.00;99792.78;10548187;28;20042;-68
2022/11/16 13:22:34;;;;;;;6.93;3.42;;;;;;;11.07;100.00;99785.25;10546693;28;20344;-69
2022/11/16 13:27:38;;;;;;;9.00;3.15;;;;;;;11.17;100.00;99796.38;10564077;28;20032;-68
2022/11/16 13:32:58;;;;;;;4.38;2.67;;;;;;;11.20;100.00;99788.81;10545955;28;20474;-68
2022/11/16 13:37:59;;;;;;;7.82;2.97;;;;;;;11.07;100.00;99782.53;10563266;28;20375;-68
2022/11/16 13:43:04;;;;;;;5.32;2.38;;;;;;;11.03;100.00;99777.78;10547252;28;20052;-68
2022/11/16 13:48:22;;;;;;;36.08;3.40;;;;;;;10.94;100.00;99790.81;10563487;28;20437;-68
2022/11/16 13:53:36;;;;;;;5.20;2.60;;;;;;;10.99;100.00;99779.31;10561600;28;20059;-68
2022/11/16 13:58:36;;;;;;;10.57;3.25;;;;;;;11.05;100.00;99760.25;10545074;28;20050;-68
2022/11/16 14:03:37;;;;;;;9.25;3.70;;;;;;;11.14;100.00;99758.06;10545735;28;20020;-68
2022/11/16 14:08:38;;;;;;;4.82;2.35;;;;;;;11.11;100.00;99748.50;10544462;28;20069;-68
2022/11/16 14:13:43;;;;;;;7.10;2.90;;;;;;;11.08;100.00;99758.97;10545664;28;20055;-68
2022/11/16 14:18:49;;;;;;;15.23;5.10;;;;;;;11.17;100.00;99744.06;10544596;28;20636;-68
2022/11/16 14:24:08;;;;;;;;;;;;;;;11.10;100.00;99746.00;10563623;28;20140;-68
2022/11/16 14:29:11;;;;;;;6.28;2.47;;;;;;;11.20;100.00;99734.63;10544772;28;20348;-68
2022/11/16 14:34:17;;;;;;;6.85;2.88;;;;;;;11.28;100.00;99728.91;10545254;28;20028;-68
2022/11/16 14:39:36;;;;;;;5.80;2.85;;;;;;;11.14;100.00;99730.97;10560559;28;20040;-68
2022/11/16 14:44:37;;;;;;;8.85;2.22;;;;;;;11.16;100.00;99718.00;10560349;28;20119;-68
2022/11/16 14:49:44;;;;;;;8.98;2.17;;;;;;;11.13;100.00;99713.03;10543281;28;20029;-68
2022/11/16 14:54:50;;;;;;;4.63;2.65;;;;;;;11.20;100.00;99699.41;10559988;28;20103;-68
2022/11/16 15:00:11;;;;;;;8.68;3.28;;;;;;;11.12;100.00;99695.16;10544855;28;20060;-68
2022/11/16 15:05:17;;;;;;;7.75;2.70;;;;;;;11.18;100.00;99683.38;10559565;28;20028;-68
2022/11/16 15:10:20;;;;;;;8.43;2.38;;;;;;;11.16;100.00;99693.63;10559581;28;20464;-68
2022/11/16 15:15:27;;;;;;;7.88;2.75;;;;;;;11.12;100.00;99673.47;10559063;28;20032;-68
2022/11/16 15:20:29;;;;;;;11.65;3.55;;;;;;;11.01;100.00;99642.59;10541969;28;20070;-68
2022/11/16 15:25:40;;;;;;;6.38;2.30;;;;;;;10.66;100.00;99645.16;10541657;28;20392;-68
2022/11/16 15:30:40;;;;;;;5.68;2.58;;;;;;;10.54;100.00;99641.56;10557639;28;20024;-68
2022/11/16 15:35:41;;;;;;;5.88;3.20;;;;;;;10.47;100.00;99645.19;10559720;28;20039;-68
2022/11/16 15:40:58;;;;;;;12.30;3.95;;;;;;;10.57;100.00;99627.59;10558192;28;20464;-68
2022/11/16 15:45:58;;;;;;;7.53;3.72;;;;;;;10.50;100.00;99622.25;10557470;28;20036;-68
2022/11/16 15:50:59;;;;;;;5.93;3.40;;;;;;;10.47;100.00;99622.72;10542724;28;20386;-68
2022/11/16 15:55:59;;;;;;;9.83;2.47;;;;;;;10.42;100.00;99611.75;10542653;28;20035;-68
2022/11/16 16:00:59;;;;;;;8.88;1.98;;;;;;;10.32;100.00;99600.63;10540442;28;20304;-68
2022/11/16 16:06:00;;;;;;;5.03;2.28;;;;;;;10.19;100.00;99598.88;10523524;28;20024;-68
2022/11/16 16:11:08;;;;;;;15.68;3.65;;;;;;;10.21;100.00;99600.31;10541609;28;20121;-68
2022/11/16 16:16:26;;;;;;;8.70;3.47;;;;;;;10.20;100.00;99590.53;10559420;28;20063;-68
2022/11/16 16:21:39;;;;;;;2.15;1.98;;;;;;;10.30;100.00;99605.44;10522953;28;20483;-68
2022/11/16 16:26:39;;;;;;;12.18;4.03;;;;;;;10.19;100.00;99596.19;10555471;28;20040;-68
2022/11/16 16:31:39;;;;;;;18.50;3.78;;;;;;;10.07;100.00;99592.59;10556609;28;20123;-69
2022/11/16 16:36:40;;;;;;;11.32;3.53;;;;;;;9.96;100.00;99586.06;10539852;28;20039;-68
2022/11/16 16:41:40;;;;;;;5.88;3.03;;;;;;;9.89;100.00;99588.00;10540675;28;20612;-68
2022/11/16 16:46:41;;;;;;;7.00;3.10;;;;;;;9.81;100.00;99581.00;10539675;28;20059;-68
2022/11/16 16:51:41;;;;;;;6.50;2.88;;;;;;;9.74;100.00;99570.28;10540692;28;20036;-68
2022/11/16 16:56:41;;;;;;;9.07;2.47;;;;;;;9.68;100.00;99568.47;10540750;28;20036;-68
2022/11/16 17:01:42;;;;;;;12.75;4.38;;;;;;;9.55;100.00;99564.03;10540607;28;20056;-69
2022/11/16 17:06:43;;;;;;;11.27;4.43;;;;;;;9.54;100.00;99561.56;10522372;28;20040;-68
2022/11/16 17:11:45;;;;;;;7.80;3.78;;;;;;;9.46;100.00;99556.44;10555607;28;20089;-68
2022/11/16 17:16:45;;;;;;;6.20;2.47;;;;;;;9.42;100.00;99550.66;10539609;28;20036;-69
2022/11/16 17:21:46;;;;;;;5.57;3.22;;;;;;;9.42;100.00;99550.66;10539638;28;20420;-68
2022/11/16 17:26:49;;;;;;;5.65;2.20;;;;;;;9.48;100.00;99546.25;10539175;28;20032;-68
2022/11/16 17:31:50;;;;;;;5.95;2.97;;;;;;;9.44;100.00;99545.00;10537725;28;20165;-69
2022/11/16 17:36:50;;;;;;;7.10;4.20;;;;;;;9.47;100.00;99547.28;10555307;28;20173;-68
2022/11/16 17:41:51;;;;;;;12.10;4.93;;;;;;;9.45;100.00;99546.69;10538953;28;20488;-68
2022/11/16 17:46:51;;;;;;;7.97;4.15;;;;;;;9.46;100.00;99538.34;10557926;28;20143;-68
2022/11/16 17:51:52;;;;;;;17.00;8.77;;;;;;;9.49;100.00;99546.00;10547262;28;20141;-68
2022/11/16 17:56:52;;;;;;;6.20;4.10;;;;;;;9.59;100.00;99537.38;10562828;28;20039;-68
2022/11/16 18:01:52;;;;;;;10.35;3.97;;;;;;;9.59;100.00;99536.56;10544956;28;20403;-69
2022/11/16 18:06:54;;;;;;;10.77;3.95;;;;;;;9.61;100.00;99537.16;10562477;28;20047;-68
2022/11/16 18:11:55;;;;;;;5.72;3.88;;;;;;;9.60;100.00;99533.63;10528308;28;20032;-67
2022/11/16 18:16:55;;;;;;;6.07;3.55;;;;;;;9.61;100.00;99527.19;10529718;28;20032;-68
2022/11/16 18:21:56;;;;;;;11.80;4.28;;;;;;;9.67;100.00;99512.78;10547072;28;20058;-69
2022/11/16 18:26:56;;;;;;;4.25;2.53;;;;;;;9.72;100.00;99521.00;10530734;28;20035;-69
2022/11/16 18:31:57;;;;;;;15.07;4.20;;;;;;;9.76;100.00;99511.41;10561657;28;20430;-68
2022/11/16 18:36:57;;;;;;;5.47;2.70;;;;;;;9.75;100.00;99535.94;10561260;28;20039;-68
2022/11/16 18:41:58;;;;;;;10.32;3.92;;;;;;;9.82;100.00;99493.44;10543410;28;20067;-68
2022/11/16 18:46:58;;;;;;;8.75;3.53;;;;;;;9.80;100.00;99490.16;10561860;28;20061;-68
2022/11/16 18:51:59;;;;;;;4.88;2.50;;;;;;;9.82;100.00;99476.41;10543668;28;20494;-69
2022/11/16 18:56:59;;;;;;;5.95;2.65;;;;;;;9.83;100.00;99453.72;10542673;28;20075;-69
2022/11/16 19:02:00;;;;;;;3.08;2.88;;;;;;;9.80;100.00;99441.50;10560066;28;20028;-69
2022/11/16 19:07:01;;;;;;;7.55;3.50;;;;;;;9.80;100.00;99427.97;10544130;28;20059;-68
2022/11/16 19:12:02;;;;;;;7.00;2.50;;;;;;;9.77;100.00;99410.31;10525953;28;20028;-69
2022/11/16 19:17:04;;;;;;;10.38;2.60;;;;;;;9.83;100.00;99395.06;10527506;28;20131;-69
2022/11/16 19:22:04;;;;;;;6.85;4.00;;;;;;;9.80;100.00;99384.72;10560105;28;20464;-69
2022/11/16 19:27:04;;;;;;;5.32;2.33;;;;;;;9.82;100.00;99368.25;10542054;28;20040;-69
2022/11/16 19:32:05;;;;;;;7.88;2.78;;;;;;;9.82;100.00;99343.91;10558838;28;20067;-69
2022/11/16 19:37:05;;;;;;;2.88;2.10;;;;;;;9.85;100.00;99333.47;10543358;28;20067;-69
2022/11/16 19:42:06;;;;;;;6.25;1.85;;;;;;;9.81;100.00;99316.06;10542392;28;20046;-68
2022/11/16 19:47:06;;;;;;;6.50;2.55;;;;;;;9.83;100.00;99308.56;10559541;28;20071;-68
2022/11/16 19:52:06;;;;;;;6.25;3.38;;;;;;;9.75;100.00;99301.59;10557675;28;20036;-69
2022/11/16 19:57:07;;;;;;;10.77;3.42;;;;;;;9.64;100.00;99285.38;10540932;28;20480;-69
2022/11/16 20:02:08;;;;;;;8.48;3.45;;;;;;;9.58;100.00;99270.88;10540881;28;20032;-69
2022/11/16 20:07:10;;;;;;;10.27;3.47;;;;;;;9.48;100.00;99276.03;10558246;28;20036;-69
2022/11/16 20:12:10;;;;;;;6.97;2.72;;;;;;;9.47;100.00;99258.97;10541371;28;20039;-68
2022/11/16 20:17:12;;;;;;;9.13;4.20;;;;;;;9.43;100.00;99257.78;10539945;28;20039;-68
2022/11/16 20:22:12;;;;;;;8.77;4.05;;;;;;;9.45;100.00;99250.28;10541135;28;20031;-68
2022/11/16 20:27:12;;;;;;;9.38;3.80;;;;;;;9.44;100.00;99234.28;10540336;28;20063;-68
2022/11/16 20:32:13;;;;;;;5.32;3.35;;;;;;;9.44;100.00;99207.28;10541051;28;20081;-68
2022/11/16 20:37:15;;;;;;;7.05;3.95;;;;;;;9.43;100.00;99201.06;10541072;28;20040;-69
2022/11/16 20:42:15;;;;;;;6.82;3.15;;;;;;;9.46;100.00;99184.38;10544607;28;20036;-68
2022/11/16 20:47:15;;;;;;;3.40;3.10;;;;;;;9.55;100.00;99171.38;10541095;28;20032;-68
2022/11/16 20:52:16;;;;;;;6.68;3.38;;;;;;;9.62;100.00;99166.66;10539149;28;20107;-69
2022/11/16 20:57:16;;;;;;;5.10;3.55;;;;;;;9.70;100.00;99162.78;10538575;28;20043;-69
2022/11/16 21:02:17;;;;;;;18.48;4.43;;;;;;;9.71;100.00;99151.75;10539084;28;20035;-68
2022/11/16 21:07:18;;;;;;;10.68;3.58;;;;;;;9.76;100.00;99151.03;10523669;28;20028;-68
2022/11/16 21:17:37;;;;;;;5.35;3.50;;;;;;;9.80;100.00;99108.97;10538372;28;20032;-68
2022/11/16 21:22:37;;;;;;;6.50;3.33;;;;;;;9.85;100.00;99094.75;10541435;28;20531;-68
2022/11/16 21:27:38;;;;;;;6.65;3.00;;;;;;;9.91;100.00;99096.50;10548401;28;20047;-68
2022/11/16 21:32:38;;;;;;;6.70;3.45;;;;;;;9.83;100.00;99081.47;10547477;28;20380;-68
2022/11/16 21:37:39;;;;;;;5.97;2.85;;;;;;;9.68;100.00;99081.13;10529439;28;20031;-68
2022/11/16 21:42:39;;;;;;;15.43;3.67;;;;;;;9.59;100.00;99063.63;10547204;28;20490;-68
2022/11/16 21:47:40;;;;;;;3.88;2.47;;;;;;;9.45;100.00;99053.06;10563696;28;20088;-69
2022/11/16 21:52:40;;;;;;;9.20;4.05;;;;;;;9.37;100.00;99028.28;10546665;28;20032;-69
2022/11/16 21:57:40;;;;;;;10.10;3.67;;;;;;;9.27;100.00;99009.97;10546878;28;20039;-70
2022/11/16 22:02:41;;;;;;;8.57;3.13;;;;;;;9.18;100.00;98989.75;10547078;28;20097;-70
2022/11/16 22:07:41;;;;;;;3.83;3.00;;;;;;;9.09;100.00;98970.38;10546675;28;20048;-71
2022/11/16 22:12:42;;;;;;;6.32;2.92;;;;;;;9.02;100.00;98927.31;10546758;28;20028;-70
2022/11/16 22:17:42;;;;;;;12.85;3.88;;;;;;;8.99;100.00;98938.56;10546357;28;20073;-71
2022/11/16 22:22:43;;;;;;;4.78;3.72;;;;;;;8.96;100.00;98909.34;10545628;28;20028;-73
2022/11/16 22:27:46;;;;;;;9.55;3.63;;;;;;;8.91;100.00;98906.56;10546162;28;20487;-72
2022/11/16 22:32:46;;;;;;;5.10;4.35;;;;;;;8.86;100.00;98903.72;10546980;28;20032;-72
2022/11/16 22:37:47;;;;;;;16.45;3.42;;;;;;;8.83;100.00;98888.81;10545751;28;20036;-72
2022/11/16 22:42:47;;;;;;;5.10;3.55;;;;;;;8.84;100.00;98862.66;10544831;28;20059;-73
2022/11/16 22:47:49;;;;;;;6.40;3.60;;;;;;;8.81;100.00;98838.84;10543997;28;20031;-72
2022/11/16 22:52:49;;;;;;;14.55;4.65;;;;;;;8.74;100.00;98800.34;10560140;28;20414;-71
2022/11/16 22:57:50;;;;;;;4.55;3.78;;;;;;;8.75;100.00;98778.53;10548100;28;20062;-71
2022/11/16 23:02:51;;;;;;;7.03;4.10;;;;;;;8.70;100.00;98751.44;10543863;28;20043;-70
2022/11/16 23:07:54;;;;;;;13.85;6.15;;;;;;;8.71;100.00;98739.63;10545065;28;20032;-71
2022/11/16 23:18:13;;;;;;;5.45;3.58;;;;;;;8.74;100.00;98695.13;10543076;28;20075;-70
2022/11/16 23:28:36;;;;;;;9.07;5.38;;;;;;;8.73;100.00;98623.34;10555970;28;20036;-70
2022/11/16 23:33:46;;;;;;;11.77;6.07;;;;;;;8.75;100.00;98624.75;10542022;28;20043;-70
2022/11/16 23:38:47;;;;;;;7.45;3.83;;;;;;;8.75;100.00;98599.63;10544231;28;20043;-70
2022/11/16 23:43:59;;;;;;;8.05;4.65;;;;;;;8.75;100.00;98583.44;10542139;28;20059;-70
2022/11/16 23:49:00;;;;;;;5.05;4.10;;;;;;;8.78;100.00;98546.00;10541603;28;20036;-70
2022/11/16 23:54:00;;;;;;;0.82;0.82;;;;;;;8.80;100.00;98543.03;10542412;28;20397;-69
2022/11/16 23:59:01;;;;;;;0.30;0.30;;;;;;;8.84;100.00;98539.63;10542209;28;20032;-69
